• Join FlightAware (Why Join?)
  • Login
  • US Flag 
05:35PM EDT


 

Airport Tracker/Info


-or-


 

Live Flight TrackerFlight Track Log ✈ SWA3121 ✈ 21-Apr-2013 ✈ KMCO - KHOU

Flight Track Log - Related Links

Times and Time Zones

All times are in EDT time to prevent confusion due to time zone crossing. See the SWA3121 flight status page for this flight to view local times or setup timezone preferences in your user account.

Time Position Orientation Groundspeed Altitude Reporting Facility
EDT Latitude Longitude Course Direction KTS MPH feet Rate Location/Type
08:58PM 28.4333 -81.3167 360° North 164 189 500  Level Orlando TRACON
08:59PM 28.4833 -81.3167 360° North 160 184 1,900 1,680 Climbing Orlando TRACON
08:59PM 28.5167 -81.3167 360° North 219 252 2,900 2,340 Climbing Orlando TRACON
09:00PM 28.5833 -81.3500 336° Northwest 268 308 6,200 2,940 Climbing Orlando TRACON
09:01PM 28.5500 -81.4167 240° Southwest 292 336 8,800 3,180 Climbing Orlando TRACON
09:03PM 28.4817 -81.6150 249° West 307 353 16,400 3,000 Climbing Jacksonville Center
09:04PM 28.4469 -81.7028 246° West 307 353 19,000 2,220 Climbing Jacksonville Center
09:05PM 28.4228 -81.8019 255° West 312 359 20,900 1,740 Climbing Jacksonville Center
09:06PM 28.3925 -81.9206 254° West 341 392 22,500 1,500 Climbing Jacksonville Center
09:07PM 28.3619 -82.0433 254° West 373 429 23,900 1,260 Climbing Jacksonville Center
09:08PM 28.3294 -82.1708 254° West 404 465 25,000 540 Climbing Jacksonville Center
09:09PM 28.2947 -82.2986 253° West 423 487 25,000 60 Level Jacksonville Center
09:10PM 28.2617 -82.4236 253° West 423 487 25,200 780 Climbing Jacksonville Center
09:11PM 28.2289 -82.5556 254° West 423 487 26,600 1,560 Climbing Jacksonville Center
09:13PM 28.1731 -82.7603 253° West 444 511 29,100 2,040 Climbing Miami Center
09:14PM 28.1406 -82.8881 254° West 444 511 31,800 2,400 Climbing Miami Center
09:15PM 28.1333 -83.0122 266° West 409 471 34,000 2,100 Climbing Miami Center
09:16PM 28.1514 -83.1261 280° West 395 455 36,000 1,560 Climbing Miami Center
09:17PM 28.1692 -83.2425 280° West 381 438 37,200 960 Climbing Miami Center
09:18PM 28.1894 -83.3494 282° West 365 420 38,000 360 Climbing Miami Center
09:19PM 28.2050 -83.4611 279° West 365 420 38,000 -60 Level Miami Center
09:20PM 28.2250 -83.5706 282° West 358 412 37,900  Descending Miami Center
09:21PM 28.2450 -83.6800 282° West 358 412 38,000  Climbing Miami Center
09:22PM 28.2622 -83.7989 279° West 358 412 38,000  Level Miami Center
09:23PM 28.2847 -83.8919 285° West 358 412 38,000  Level Miami Center
09:23PM 28.2936 -83.9606 278° West 365 420 38,000  Level Jacksonville Center
09:24PM 28.3114 -84.0739 280° West 354 407 38,000  Level Jacksonville Center
09:25PM 28.3311 -84.1872 281° West 354 407 38,000  Level Jacksonville Center
09:26PM 28.3467 -84.2958 279° West 365 420 38,000  Level Jacksonville Center
09:27PM 28.3664 -84.4117 281° West 365 420 38,000  Level Jacksonville Center
09:28PM 28.3878 -84.5278 282° West 377 434 38,000  Level Jacksonville Center
09:29PM 28.4072 -84.6436 281° West 372 428 38,000  Level Jacksonville Center
09:30PM 28.4264 -84.7572 281° West 366 421 38,000  Level Jacksonville Center
09:31PM 28.4436 -84.8708 280° West 371 427 38,000  Level Jacksonville Center
09:32PM 28.4606 -84.9892 279° West 371 427 38,000  Level Jacksonville Center
09:33PM 28.4814 -85.1031 282° West 372 428 38,000  Level Jacksonville Center
09:34PM 28.4983 -85.2169 280° West 372 428 38,000  Level Jacksonville Center
09:35PM 28.5192 -85.3331 282° West 372 428 38,000  Level Jacksonville Center
09:36PM 28.5336 -85.4492 278° West 372 428 38,000  Level Jacksonville Center
09:37PM 28.5542 -85.5656 281° West 372 428 38,000  Level Jacksonville Center
09:38PM 28.5703 -85.6842 279° West 372 428 38,000  Level Jacksonville Center
09:39PM 28.5886 -85.7981 280° West 372 428 38,000  Level Jacksonville Center
09:40PM 28.6069 -85.9144 280° West 372 428 38,000  Level Jacksonville Center
09:41PM 28.6228 -86.0286 279° West 372 428 38,000  Level Jacksonville Center
09:42PM 28.6431 -86.1450 281° West 372 428 38,000  Level Jacksonville Center
09:43PM 28.6608 -86.2639 280° West 372 428 38,000  Level Jacksonville Center
09:44PM 28.6767 -86.3756 279° West 372 428 38,000  Level Jacksonville Center
09:45PM 28.6942 -86.4922 280° West 372 428 38,000  Level Jacksonville Center
09:46PM 28.7119 -86.6039 280° West 367 422 38,000  Level Jacksonville Center
09:47PM 28.7236 -86.7014 278° West 367 422 38,000  Level Jacksonville Center
09:48PM 28.7411 -86.8181 280° West 367 422 38,000  Level Jacksonville Center
09:49PM 28.7583 -86.9350 280° West 373 429 38,000  Level Jacksonville Center
09:50PM 28.7756 -87.0469 280° West 367 422 38,000  Level Jacksonville Center
09:51PM 28.7925 -87.1661 279° West 373 429 38,000  Level Jacksonville Center
09:52PM 28.8094 -87.2781 280° West 373 429 38,000  Level Jacksonville Center
09:53PM 28.8233 -87.3836 279° West 369 425 38,000  Level Houston Center
09:54PM 28.8383 -87.4986 278° West 371 427 38,000  Level Houston Center
09:55PM 28.8553 -87.6117 280° West 364 419 38,000  Level Houston Center
09:56PM 28.8708 -87.7253 279° West 364 419 38,000  Level Houston Center
09:57PM 28.8886 -87.8619 278° West 364 419 38,000  Level Houston Center
09:58PM 28.9047 -87.9758 279° West 366 421 38,000  Level Houston Center
10:00PM 28.9181 -88.0869 278° West 365 420 38,000  Level Houston Center
10:01PM 28.9339 -88.2011 279° West 367 422 38,000  Level Houston Center
10:02PM 28.9497 -88.3150 279° West 366 421 38,000  Level Houston Center
10:03PM 28.9639 -88.4283 278° West 364 419 38,000  Level Houston Center
10:04PM 28.9792 -88.5417 279° West 362 417 38,000  Level Houston Center
10:05PM 28.9942 -88.6547 279° West 362 417 38,000  Level Houston Center
10:06PM 29.0092 -88.7689 279° West 365 420 38,000  Level Houston Center
10:07PM 29.0239 -88.8839 278° West 366 421 38,000  Level Houston Center
10:08PM 29.0414 -89.0222 278° West 367 422 38,000  Level Houston Center
10:09PM 29.0564 -89.1381 278° West 369 425 38,000  Level Houston Center
10:10PM 29.0708 -89.2536 278° West 368 423 38,000  Level Houston Center
10:11PM 29.0853 -89.3681 278° West 366 421 38,000  Level Houston Center
10:12PM 29.0994 -89.4833 278° West 367 422 38,000  Level Houston Center
10:13PM 29.1139 -89.5978 278° West 364 419 38,000  Level Houston Center
10:14PM 29.1269 -89.7133 277° West 363 418 38,000  Level Houston Center
10:15PM 29.1406 -89.8247 278° West 356 410 38,000  Level Houston Center
10:16PM 29.1547 -89.9400 278° West 362 417 38,000  Level Houston Center
10:17PM 29.1683 -90.0542 278° West 363 418 38,000  Level Houston Center
10:18PM 29.1783 -90.1736 276° West 373 429 38,000  Level Houston Center
10:19PM 29.1825 -90.2900 272° West 370 426 38,000  Level Houston Center
10:20PM 29.1867 -90.4072 272° West 369 425 38,000  Level Houston Center
10:21PM 29.1908 -90.5253 272° West 370 426 38,000  Level Houston Center
10:22PM 29.1947 -90.6644 272° West 367 422 38,000  Level Houston Center
10:23PM 29.2003 -90.7819 273° West 368 423 38,000  Level Houston Center
10:24PM 29.2036 -90.8961 272° West 365 420 38,000  Level Houston Center
10:25PM 29.2058 -91.0106 271° West 362 417 38,000  Level Houston Center
10:26PM 29.2100 -91.1258 272° West 363 418 38,000  Level Houston Center
10:27PM 29.2133 -91.2408 272° West 363 418 38,000  Level Houston Center
10:28PM 29.2161 -91.3561 272° West 363 418 38,000  Level Houston Center
10:29PM 29.2197 -91.4714 272° West 363 418 38,000  Level Houston Center
10:30PM 29.2236 -91.5864 272° West 363 418 38,000  Level Houston Center
10:31PM 29.2261 -91.7011 271° West 362 417 38,000  Level Houston Center
10:32PM 29.2272 -91.8250 271° West 367 422 38,000  Level Houston Center
10:33PM 29.2306 -91.9403 272° West 366 421 38,000  Level Houston Center
10:34PM 29.2328 -92.0558 271° West 362 417 38,000  Level Houston Center
10:35PM 29.2353 -92.1719 271° West 364 419 38,000  Level Houston Center
10:36PM 29.2383 -92.2867 272° West 362 417 38,000  Level Houston Center
10:37PM 29.2408 -92.4000 271° West 359 413 38,000  Level Houston Center
10:38PM 29.2433 -92.5386 271° West 363 418 38,000  Level Houston Center
10:39PM 29.2458 -92.6547 271° West 366 421 38,000  Level Houston Center
10:40PM 29.2489 -92.7706 272° West 365 420 38,000  Level Houston Center
10:41PM 29.2503 -92.8864 271° West 365 420 38,000  Level Houston Center
10:42PM 29.2533 -93.0258 271° West 364 419 38,000 -900 Level Houston Center
10:43PM 29.2544 -93.1411 271° West 363 418 36,200 -1,980 Descending Houston Center
10:44PM 29.2561 -93.2528 271° West 355 409 34,000 -2,100 Descending Houston Center
10:45PM 29.2572 -93.3644 271° West 349 402 32,000 -2,040 Descending Houston Center
10:46PM 29.2589 -93.4703 271° West 337 388 30,000 -1,920 Descending Houston Center
10:47PM 29.2606 -93.5778 271° West 336 387 28,100 -1,920 Descending Houston Center
10:48PM 29.2606 -93.6836 270° West 334 384 26,100 -1,920 Descending Houston Center
10:49PM 29.2625 -93.7922 271° West 338 389 24,200 -1,980 Descending Houston Center
10:51PM 29.2633 -93.9058 271° West 337 388 22,100 -2,160 Descending Houston Center
10:51PM 29.2636 -93.9344 271° West 339 390 21,500 -1,980 Descending Houston Center
10:51PM 29.2650 -94.0086 271° West 334 384 20,200 -1,920 Descending Houston Center
10:52PM 29.2650 -94.1139 270° West 316 364 18,300 -1,740 Descending Houston Center
10:54PM 29.2664 -94.2097 271° West 304 350 16,700 -1,680 Descending Houston Center
10:54PM 29.2647 -94.2986 269° West 302 348 15,100 -1,800 Descending Houston Center
10:55PM 29.2658 -94.3944 271° West 302 348 13,300 -1,500 Descending Houston Center
10:57PM 29.2714 -94.5136 273° West 324 373 12,000 -600 Descending Houston Center
10:57PM 29.2900 -94.5950 285° West 322 371 12,100  Climbing Houston Center
10:59PM 29.3117 -94.7003 283° West 319 367 12,000 -240 Descending Houston Center
11:00PM 29.3344 -94.8147 283° West 318 366 11,700 -720 Descending Houston Center
11:01PM 29.3506 -94.8919 283° West 302 348 10,600 -1,260 Descending Houston Center
11:02PM 29.3675 -94.9778 283° West 280 322 9,300 -1,500 Descending Houston Center
11:03PM 29.3839 -95.0622 283° West 272 313 7,600 -1,560 Descending Houston Center
11:04PM 29.4014 -95.1475 283° West 272 313 6,200 -1,620 Descending Houston Center
11:05PM 29.4208 -95.2317 285° West 271 312 4,400 -1,560 Descending Houston Center
11:06PM 29.4983 -95.2842 329° Northwest 257 296 3,000 -960 Descending Houston Center
11:07PM 29.5433 -95.3147 329° Northwest 185 213 2,600 -840 Descending Houston Center
11:08PM 29.5850 -95.3361 336° Northwest 147 169 1,500 -960 Descending Houston Center
11:09PM 29.6164 -95.3106 35° Northeast 137 158 700 -660 Descending Houston Center
11:10PM 29.6447 -95.2814 42° Northeast 145 167 200 -480 Descending Houston Center